WetterOnline ( https://www.wetteronline.de )

Wetter aktuell Poprad

Aktuelles Wetter: Poprad (696m)

6-stündlich | Neueste Meldungen
Ortszeit Temperatur Wetter
Fr, 14.06. 2:00 6.9° C leicht bewölkt
Do, 13.06. 20:00 9.0° C leichter Regen
Do, 13.06. 14:00 10.1° C bedeckt
Do, 13.06. 8:00 8.5° C leichter Regen
Do, 13.06. 2:00 8.3° C leichter Regen
Mi, 12.06. 20:00 10.6° C bewölkt
Mi, 12.06. 14:00 11.9° C bewölkt
Mi, 12.06. 8:00 11.4° C bewölkt
Ortszeit Temperatur Wetter
Fr, 14.06. 7:00 8.4° C leicht bewölkt
Fr, 14.06. 6:00 4.6° C leicht bewölkt
Fr, 14.06. 5:00 4.7° C fast wolkenlos
Fr, 14.06. 4:00 5.9° C fast wolkenlos
Fr, 14.06. 3:00 6.7° C leicht bewölkt
Fr, 14.06. 2:00 6.9° C leicht bewölkt
Fr, 14.06. 1:00 8.0° C leicht bewölkt
Ortszeit Relative Feuchte Sichtweite
Fr, 14.06. 2:00 97% 15 km
Do, 13.06. 20:00 98% 12 km
Do, 13.06. 14:00 92% 15 km
Do, 13.06. 8:00 90% 20 km
Do, 13.06. 2:00 90% 15 km
Mi, 12.06. 20:00 74% 30 km
Mi, 12.06. 14:00 71% 40 km
Mi, 12.06. 8:00 79% 40 km
Ortszeit Relative Feuchte Sichtweite
Fr, 14.06. 7:00 92% 35 km
Fr, 14.06. 6:00 100% 25 km
Fr, 14.06. 5:00 100% 15 km
Fr, 14.06. 4:00 97% 20 km
Fr, 14.06. 3:00 95% 15 km
Fr, 14.06. 2:00 97% 15 km
Fr, 14.06. 1:00 95% 15 km
Ortszeit Niederschlagsmenge Niederschlagsart
Fr, 14.06. 2:00 0.2 l/m2 in 6 Std. Regen
Do, 13.06. 20:00 3 l/m2 in 12 Std. Regen
Do, 13.06. 14:00 2 l/m2 in 6 Std. Regen
Do, 13.06. 8:00 1 l/m2 in 12 Std. Regen
Do, 13.06. 2:00 0.8 l/m2 in 6 Std. -
Mi, 12.06. 20:00 0.0 l/m2 in 12 Std. -
Mi, 12.06. 14:00 0.0 l/m2 in 6 Std. -
Mi, 12.06. 8:00 0.1 l/m2 in 12 Std. Regen
Ortszeit Niederschlagsmenge Niederschlagsart
Fr, 14.06. 7:00 0.0 l/m2 in 1 Std. -
Fr, 14.06. 6:00 0.0 l/m2 in 1 Std. -
Fr, 14.06. 5:00 0.0 l/m2 in 1 Std. -
Fr, 14.06. 4:00 0.0 l/m2 in 1 Std. -
Fr, 14.06. 3:00 0.0 l/m2 in 1 Std. -
Fr, 14.06. 2:00 0.0 l/m2 in 1 Std. Regen
Fr, 14.06. 1:00 0.0 l/m2 in 1 Std. -
Ortszeit Stärke Spitze Richtung
km/h Bft. km/h Grad Sektor
Fr, 14.06. 2:00 14 3 - 260° W
Do, 13.06. 20:00 11 2 - 50° NO
Do, 13.06. 14:00 11 2 - 60° NO
Do, 13.06. 8:00 11 2 - 40° NO
Do, 13.06. 2:00 4 1 - - -
Mi, 12.06. 20:00 14 3 - 40° NO
Mi, 12.06. 14:00 18 3 - 40° NO
Mi, 12.06. 8:00 14 3 - 60° NO
Ortszeit Stärke Spitze Richtung
km/h Bft. km/h Grad Sektor
Fr, 14.06. 7:00 14 3 - 250° W
Fr, 14.06. 6:00 4 1 - - -
Fr, 14.06. 5:00 4 1 - - -
Fr, 14.06. 4:00 4 1 - - -
Fr, 14.06. 3:00 18 3 - 260° W
Fr, 14.06. 2:00 14 3 - 260° W
Fr, 14.06. 1:00 7 2 - 260° W
Ortszeit Untergrenze Bedeckung Gattung
total tief tief mittel hoch
Fr, 14.06. 2:00 180 m 3/8 2/8 Sc Ac -
Do, 13.06. 20:00 150 m 8/8 8/8 Sc - -
Do, 13.06. 14:00 150 m 8/8 8/8 Sc - -
Do, 13.06. 8:00 150 m 8/8 8/8 Sc - -
Do, 13.06. 2:00 660 m 7/8 7/8 Sc - -
Mi, 12.06. 20:00 690 m 7/8 7/8 Sc - -
Mi, 12.06. 14:00 690 m 7/8 7/8 Sc - -
Mi, 12.06. 8:00 390 m 7/8 6/8 Sc As -
Ortszeit Bedeckungsgrad in Achtel und Wolkenuntergrenze
Fr, 14.06. 7:00 2(210m)
Fr, 14.06. 6:00 3(210m)
Fr, 14.06. 5:00 1(90m)
Fr, 14.06. 4:00 1(180m)
Fr, 14.06. 3:00 1(180m)
Fr, 14.06. 2:00 1(180m)
Fr, 14.06. 1:00 1(120m) 3(360m)
Ortszeit Stationsdruck (hPa) Tendenz (hPa in 3 Std.)
Fr, 14.06. 2:00 936 + 0,4
Do, 13.06. 20:00 935 0,0
Do, 13.06. 14:00 936 - 0,4
Do, 13.06. 8:00 936 0,0
Do, 13.06. 2:00 937 - 0,1
Mi, 12.06. 20:00 936 + 0,1
Mi, 12.06. 14:00 936 0,0
Mi, 12.06. 8:00 936 + 0,4
Ortszeit Stationsdruck (hPa) Tendenz (hPa in 3 Std.)
Fr, 14.06. 7:00 936 keine Meldung
Fr, 14.06. 6:00 936 keine Meldung
Fr, 14.06. 5:00 936 - 0,2
Fr, 14.06. 4:00 935 keine Meldung
Fr, 14.06. 3:00 935 keine Meldung
Fr, 14.06. 2:00 936 + 0,4
Fr, 14.06. 1:00 936 keine Meldung
Ortszeit Schneehöhe (cm)
Fr, 14.06. 2:00 -
Do, 13.06. 20:00 -
Do, 13.06. 14:00 -
Do, 13.06. 8:00 0
Do, 13.06. 2:00 -
Mi, 12.06. 20:00 -
Mi, 12.06. 14:00 -
Mi, 12.06. 8:00 0
Ortszeit Schneehöhe (cm)
Fr, 14.06. 7:00 -
Fr, 14.06. 6:00 -
Fr, 14.06. 5:00 -
Fr, 14.06. 4:00 -
Fr, 14.06. 3:00 -
Fr, 14.06. 2:00 -
Fr, 14.06. 1:00 -
Link zu dieser Seite / Seite empfehlen

Das Wetter in ...